sensor_id;sensor_type;location;lat;lon;timestamp;pressure;altitude;pressure_sealevel;temperature
10598;BMP180;5346;48.766;8.674;2023-07-13T00:00:03;94279.00;;;14.80
10598;BMP180;5346;48.766;8.674;2023-07-13T00:02:44;94275.00;;;14.90
10598;BMP180;5346;48.766;8.674;2023-07-13T00:05:20;94279.00;;;14.80
10598;BMP180;5346;48.766;8.674;2023-07-13T00:07:55;94279.00;;;14.70
10598;BMP180;5346;48.766;8.674;2023-07-13T00:10:41;94286.00;;;14.70
10598;BMP180;5346;48.766;8.674;2023-07-13T00:13:16;94274.00;;;14.60
10598;BMP180;5346;48.766;8.674;2023-07-13T00:15:51;94268.00;;;14.60
10598;BMP180;5346;48.766;8.674;2023-07-13T00:18:27;94277.00;;;14.50
10598;BMP180;5346;48.766;8.674;2023-07-13T00:20:58;94261.00;;;14.60
10598;BMP180;5346;48.766;8.674;2023-07-13T00:23:41;94258.00;;;14.70
10598;BMP180;5346;48.766;8.674;2023-07-13T00:26:10;94245.00;;;14.90
10598;BMP180;5346;48.766;8.674;2023-07-13T00:28:46;94243.00;;;14.80
10598;BMP180;5346;48.766;8.674;2023-07-13T00:31:14;94247.00;;;14.90
10598;BMP180;5346;48.766;8.674;2023-07-13T00:33:48;94244.00;;;14.90
10598;BMP180;5346;48.766;8.674;2023-07-13T00:36:16;94245.00;;;14.80
10598;BMP180;5346;48.766;8.674;2023-07-13T00:38:51;94241.00;;;14.90
10598;BMP180;5346;48.766;8.674;2023-07-13T00:41:21;94232.00;;;14.90
10598;BMP180;5346;48.766;8.674;2023-07-13T00:43:56;94238.00;;;14.80
10598;BMP180;5346;48.766;8.674;2023-07-13T00:46:32;94232.00;;;14.80
10598;BMP180;5346;48.766;8.674;2023-07-13T00:49:08;94226.00;;;14.80
10598;BMP180;5346;48.766;8.674;2023-07-13T00:51:58;94220.00;;;14.80
10598;BMP180;5346;48.766;8.674;2023-07-13T00:54:39;94217.00;;;14.80
10598;BMP180;5346;48.766;8.674;2023-07-13T00:57:16;94219.00;;;14.70
10598;BMP180;5346;48.766;8.674;2023-07-13T00:59:55;94206.00;;;14.80
10598;BMP180;5346;48.766;8.674;2023-07-13T01:02:44;94207.00;;;14.80
10598;BMP180;5346;48.766;8.674;2023-07-13T01:05:21;94231.00;;;14.60
10598;BMP180;5346;48.766;8.674;2023-07-13T01:07:56;94229.00;;;14.40
10598;BMP180;5346;48.766;8.674;2023-07-13T01:10:30;94228.00;;;14.50
10598;BMP180;5346;48.766;8.674;2023-07-13T01:13:12;94224.00;;;14.40
10598;BMP180;5346;48.766;8.674;2023-07-13T01:15:43;94224.00;;;14.40
10598;BMP180;5346;48.766;8.674;2023-07-13T01:18:21;94227.00;;;14.40
10598;BMP180;5346;48.766;8.674;2023-07-13T01:21:01;94227.00;;;14.30
10598;BMP180;5346;48.766;8.674;2023-07-13T01:23:37;94222.00;;;14.30
10598;BMP180;5346;48.766;8.674;2023-07-13T01:26:11;94212.00;;;14.10
10598;BMP180;5346;48.766;8.674;2023-07-13T01:28:45;94223.00;;;14.20
10598;BMP180;5346;48.766;8.674;2023-07-13T01:31:19;94228.00;;;14.10
10598;BMP180;5346;48.766;8.674;2023-07-13T01:33:47;94225.00;;;13.90
10598;BMP180;5346;48.766;8.674;2023-07-13T01:36:21;94230.00;;;13.90
10598;BMP180;5346;48.766;8.674;2023-07-13T01:38:49;94229.00;;;13.90
10598;BMP180;5346;48.766;8.674;2023-07-13T01:41:23;94228.00;;;13.90
10598;BMP180;5346;48.766;8.674;2023-07-13T01:43:51;94229.00;;;13.80
10598;BMP180;5346;48.766;8.674;2023-07-13T01:46:25;94220.00;;;13.70
10598;BMP180;5346;48.766;8.674;2023-07-13T01:48:54;94218.00;;;13.80
10598;BMP180;5346;48.766;8.674;2023-07-13T01:51:29;94211.00;;;13.80
10598;BMP180;5346;48.766;8.674;2023-07-13T01:54:11;94211.00;;;13.80
10598;BMP180;5346;48.766;8.674;2023-07-13T01:56:45;94213.00;;;13.80
10598;BMP180;5346;48.766;8.674;2023-07-13T01:59:19;94205.00;;;13.70
10598;BMP180;5346;48.766;8.674;2023-07-13T02:01:53;94208.00;;;13.60
10598;BMP180;5346;48.766;8.674;2023-07-13T02:04:35;94206.00;;;13.60
10598;BMP180;5346;48.766;8.674;2023-07-13T02:07:09;94208.00;;;13.50
10598;BMP180;5346;48.766;8.674;2023-07-13T02:09:39;94210.00;;;13.50
10598;BMP180;5346;48.766;8.674;2023-07-13T02:12:13;94205.00;;;13.60
10598;BMP180;5346;48.766;8.674;2023-07-13T02:14:41;94211.00;;;13.60
10598;BMP180;5346;48.766;8.674;2023-07-13T02:17:17;94216.00;;;13.50
10598;BMP180;5346;48.766;8.674;2023-07-13T02:19:45;94216.00;;;13.50
10598;BMP180;5346;48.766;8.674;2023-07-13T02:22:20;94205.00;;;13.50
10598;BMP180;5346;48.766;8.674;2023-07-13T02:24:48;94205.00;;;13.60
10598;BMP180;5346;48.766;8.674;2023-07-13T02:27:22;94204.00;;;13.60
10598;BMP180;5346;48.766;8.674;2023-07-13T02:29:50;94210.00;;;13.50
10598;BMP180;5346;48.766;8.674;2023-07-13T02:32:25;94214.00;;;13.50
10598;BMP180;5346;48.766;8.674;2023-07-13T02:35:01;94214.00;;;13.50
10598;BMP180;5346;48.766;8.674;2023-07-13T02:37:35;94212.00;;;13.60
10598;BMP180;5346;48.766;8.674;2023-07-13T02:40:05;94211.00;;;13.70
10598;BMP180;5346;48.766;8.674;2023-07-13T02:42:42;94214.00;;;13.70
10598;BMP180;5346;48.766;8.674;2023-07-13T02:45:16;94215.00;;;13.60
10598;BMP180;5346;48.766;8.674;2023-07-13T02:47:50;94210.00;;;13.60
10598;BMP180;5346;48.766;8.674;2023-07-13T02:50:18;94215.00;;;13.80
10598;BMP180;5346;48.766;8.674;2023-07-13T02:52:53;94223.00;;;13.60
10598;BMP180;5346;48.766;8.674;2023-07-13T02:55:21;94223.00;;;13.50
10598;BMP180;5346;48.766;8.674;2023-07-13T02:57:57;94230.00;;;13.30
10598;BMP180;5346;48.766;8.674;2023-07-13T03:00:28;94234.00;;;13.20
10598;BMP180;5346;48.766;8.674;2023-07-13T03:03:03;94227.00;;;13.10
10598;BMP180;5346;48.766;8.674;2023-07-13T03:05:39;94222.00;;;13.20
10598;BMP180;5346;48.766;8.674;2023-07-13T03:08:21;94219.00;;;13.30
10598;BMP180;5346;48.766;8.674;2023-07-13T03:11:05;94214.00;;;13.40
10598;BMP180;5346;48.766;8.674;2023-07-13T03:13:40;94214.00;;;13.40
10598;BMP180;5346;48.766;8.674;2023-07-13T03:16:11;94215.00;;;13.60
10598;BMP180;5346;48.766;8.674;2023-07-13T03:18:47;94221.00;;;13.50
10598;BMP180;5346;48.766;8.674;2023-07-13T03:21:23;94218.00;;;13.40
10598;BMP180;5346;48.766;8.674;2023-07-13T03:23:52;94222.00;;;13.30
10598;BMP180;5346;48.766;8.674;2023-07-13T03:26:28;94229.00;;;13.40
10598;BMP180;5346;48.766;8.674;2023-07-13T03:28:57;94217.00;;;13.30
10598;BMP180;5346;48.766;8.674;2023-07-13T03:31:34;94221.00;;;13.30
10598;BMP180;5346;48.766;8.674;2023-07-13T03:34:02;94231.00;;;13.30
10598;BMP180;5346;48.766;8.674;2023-07-13T03:36:38;94234.00;;;13.30
10598;BMP180;5346;48.766;8.674;2023-07-13T03:39:06;94234.00;;;13.20
10598;BMP180;5346;48.766;8.674;2023-07-13T03:41:42;94241.00;;;13.40
10598;BMP180;5346;48.766;8.674;2023-07-13T03:44:16;94237.00;;;13.40
10598;BMP180;5346;48.766;8.674;2023-07-13T03:46:51;94243.00;;;13.40
10598;BMP180;5346;48.766;8.674;2023-07-13T03:49:20;94239.00;;;13.40
10598;BMP180;5346;48.766;8.674;2023-07-13T03:51:54;94242.00;;;13.30
10598;BMP180;5346;48.766;8.674;2023-07-13T03:54:23;94242.00;;;13.20
10598;BMP180;5346;48.766;8.674;2023-07-13T03:56:57;94235.00;;;13.10
10598;BMP180;5346;48.766;8.674;2023-07-13T03:59:30;94215.00;;;13.00
10598;BMP180;5346;48.766;8.674;2023-07-13T04:02:05;94245.00;;;13.00
10598;BMP180;5346;48.766;8.674;2023-07-13T04:04:40;94250.00;;;13.00
10598;BMP180;5346;48.766;8.674;2023-07-13T04:07:22;94251.00;;;13.10
10598;BMP180;5346;48.766;8.674;2023-07-13T04:09:50;94255.00;;;13.40
10598;BMP180;5346;48.766;8.674;2023-07-13T04:12:25;94258.00;;;13.40
10598;BMP180;5346;48.766;8.674;2023-07-13T04:15:00;94254.00;;;13.30
10598;BMP180;5346;48.766;8.674;2023-07-13T04:17:36;94258.00;;;13.30
10598;BMP180;5346;48.766;8.674;2023-07-13T04:20:11;94256.00;;;13.40
10598;BMP180;5346;48.766;8.674;2023-07-13T04:22:48;94253.00;;;13.60
10598;BMP180;5346;48.766;8.674;2023-07-13T04:25:25;94254.00;;;13.70
10598;BMP180;5346;48.766;8.674;2023-07-13T04:28:03;94255.00;;;13.60
10598;BMP180;5346;48.766;8.674;2023-07-13T04:30:39;94249.00;;;13.60
10598;BMP180;5346;48.766;8.674;2023-07-13T04:33:07;94252.00;;;13.60
10598;BMP180;5346;48.766;8.674;2023-07-13T04:35:44;94258.00;;;13.60
10598;BMP180;5346;48.766;8.674;2023-07-13T04:38:14;94254.00;;;13.50
10598;BMP180;5346;48.766;8.674;2023-07-13T04:40:51;94256.00;;;13.50
10598;BMP180;5346;48.766;8.674;2023-07-13T04:43:21;94260.00;;;13.60
10598;BMP180;5346;48.766;8.674;2023-07-13T04:45:51;94263.00;;;13.60
10598;BMP180;5346;48.766;8.674;2023-07-13T04:48:26;94261.00;;;13.90
10598;BMP180;5346;48.766;8.674;2023-07-13T04:50:57;94266.00;;;14.10
10598;BMP180;5346;48.766;8.674;2023-07-13T04:53:33;94261.00;;;14.40
10598;BMP180;5346;48.766;8.674;2023-07-13T04:56:03;94257.00;;;14.70
10598;BMP180;5346;48.766;8.674;2023-07-13T04:58:38;94270.00;;;14.90
10598;BMP180;5346;48.766;8.674;2023-07-13T05:01:10;94266.00;;;15.10
10598;BMP180;5346;48.766;8.674;2023-07-13T05:03:53;94274.00;;;15.40
10598;BMP180;5346;48.766;8.674;2023-07-13T05:06:28;94274.00;;;15.60
10598;BMP180;5346;48.766;8.674;2023-07-13T05:09:06;94273.00;;;15.60
10598;BMP180;5346;48.766;8.674;2023-07-13T05:11:44;94274.00;;;15.70
10598;BMP180;5346;48.766;8.674;2023-07-13T05:14:19;94270.00;;;15.80
10598;BMP180;5346;48.766;8.674;2023-07-13T05:16:55;94273.00;;;15.90
10598;BMP180;5346;48.766;8.674;2023-07-13T05:19:25;94265.00;;;15.90
10598;BMP180;5346;48.766;8.674;2023-07-13T05:22:00;94270.00;;;16.00
10598;BMP180;5346;48.766;8.674;2023-07-13T05:24:30;94272.00;;;16.00
10598;BMP180;5346;48.766;8.674;2023-07-13T05:27:07;94271.00;;;16.20
10598;BMP180;5346;48.766;8.674;2023-07-13T05:29:36;94268.00;;;16.30
10598;BMP180;5346;48.766;8.674;2023-07-13T05:32:11;94272.00;;;16.50
10598;BMP180;5346;48.766;8.674;2023-07-13T05:34:47;94276.00;;;16.80
10598;BMP180;5346;48.766;8.674;2023-07-13T05:37:23;94281.00;;;16.90
10598;BMP180;5346;48.766;8.674;2023-07-13T05:39:58;94283.00;;;16.80
10598;BMP180;5346;48.766;8.674;2023-07-13T05:42:36;94279.00;;;16.90
10598;BMP180;5346;48.766;8.674;2023-07-13T05:45:14;94275.00;;;17.10
10598;BMP180;5346;48.766;8.674;2023-07-13T05:47:49;94281.00;;;17.10
10598;BMP180;5346;48.766;8.674;2023-07-13T05:50:17;94291.00;;;16.90
10598;BMP180;5346;48.766;8.674;2023-07-13T05:52:53;94294.00;;;17.00
10598;BMP180;5346;48.766;8.674;2023-07-13T05:55:21;94299.00;;;17.00
10598;BMP180;5346;48.766;8.674;2023-07-13T05:57:56;94298.00;;;17.30
10598;BMP180;5346;48.766;8.674;2023-07-13T06:00:33;94296.00;;;17.30
10598;BMP180;5346;48.766;8.674;2023-07-13T06:03:16;94309.00;;;17.50
10598;BMP180;5346;48.766;8.674;2023-07-13T06:05:58;94311.00;;;17.90
10598;BMP180;5346;48.766;8.674;2023-07-13T06:08:34;94316.00;;;18.20
10598;BMP180;5346;48.766;8.674;2023-07-13T06:11:26;94313.00;;;18.10
10598;BMP180;5346;48.766;8.674;2023-07-13T06:14:02;94310.00;;;18.40
10598;BMP180;5346;48.766;8.674;2023-07-13T06:16:39;94320.00;;;18.30
10598;BMP180;5346;48.766;8.674;2023-07-13T06:19:14;94311.00;;;19.20
10598;BMP180;5346;48.766;8.674;2023-07-13T06:21:42;94327.00;;;19.60
10598;BMP180;5346;48.766;8.674;2023-07-13T06:24:16;94325.00;;;18.70
10598;BMP180;5346;48.766;8.674;2023-07-13T06:26:50;94327.00;;;18.90
10598;BMP180;5346;48.766;8.674;2023-07-13T06:29:24;94330.00;;;19.80
10598;BMP180;5346;48.766;8.674;2023-07-13T06:31:53;94338.00;;;19.80
10598;BMP180;5346;48.766;8.674;2023-07-13T06:34:27;94337.00;;;19.40
10598;BMP180;5346;48.766;8.674;2023-07-13T06:37:01;94331.00;;;19.40
10598;BMP180;5346;48.766;8.674;2023-07-13T06:39:35;94329.00;;;20.10
10598;BMP180;5346;48.766;8.674;2023-07-13T06:42:03;94331.00;;;21.10
10598;BMP180;5346;48.766;8.674;2023-07-13T06:44:40;94342.00;;;21.50
10598;BMP180;5346;48.766;8.674;2023-07-13T06:47:08;94343.00;;;21.90
10598;BMP180;5346;48.766;8.674;2023-07-13T06:49:43;94329.00;;;22.00
10598;BMP180;5346;48.766;8.674;2023-07-13T06:52:10;94331.00;;;22.20
10598;BMP180;5346;48.766;8.674;2023-07-13T06:54:50;94331.00;;;21.40
10598;BMP180;5346;48.766;8.674;2023-07-13T06:57:22;94333.00;;;21.80
10598;BMP180;5346;48.766;8.674;2023-07-13T07:00:00;94338.00;;;22.10
10598;BMP180;5346;48.766;8.674;2023-07-13T07:02:36;94339.00;;;21.90
10598;BMP180;5346;48.766;8.674;2023-07-13T07:05:16;94346.00;;;20.80
10598;BMP180;5346;48.766;8.674;2023-07-13T07:07:57;94342.00;;;21.00
10598;BMP180;5346;48.766;8.674;2023-07-13T07:10:34;94342.00;;;21.20
10598;BMP180;5346;48.766;8.674;2023-07-13T07:13:09;94352.00;;;21.40
10598;BMP180;5346;48.766;8.674;2023-07-13T07:15:44;94350.00;;;21.00
10598;BMP180;5346;48.766;8.674;2023-07-13T07:18:28;94355.00;;;20.50
10598;BMP180;5346;48.766;8.674;2023-07-13T07:21:07;94351.00;;;20.10
10598;BMP180;5346;48.766;8.674;2023-07-13T07:23:45;94354.00;;;20.30
10598;BMP180;5346;48.766;8.674;2023-07-13T07:26:21;94355.00;;;20.60
10598;BMP180;5346;48.766;8.674;2023-07-13T07:29:17;94364.00;;;20.50
10598;BMP180;5346;48.766;8.674;2023-07-13T07:31:59;94361.00;;;20.10
10598;BMP180;5346;48.766;8.674;2023-07-13T07:35:00;94351.00;;;20.40
10598;BMP180;5346;48.766;8.674;2023-07-13T07:37:37;94356.00;;;20.40
10598;BMP180;5346;48.766;8.674;2023-07-13T07:40:14;94357.00;;;20.30
10598;BMP180;5346;48.766;8.674;2023-07-13T07:42:46;94355.00;;;20.40
10598;BMP180;5346;48.766;8.674;2023-07-13T07:45:21;94353.00;;;20.90
10598;BMP180;5346;48.766;8.674;2023-07-13T07:47:56;94357.00;;;21.20
10598;BMP180;5346;48.766;8.674;2023-07-13T07:50:30;94372.00;;;21.00
10598;BMP180;5346;48.766;8.674;2023-07-13T07:53:10;94361.00;;;20.60
10598;BMP180;5346;48.766;8.674;2023-07-13T07:55:41;94362.00;;;20.80
10598;BMP180;5346;48.766;8.674;2023-07-13T07:58:18;94358.00;;;21.20
10598;BMP180;5346;48.766;8.674;2023-07-13T08:00:49;94360.00;;;21.50
10598;BMP180;5346;48.766;8.674;2023-07-13T08:03:28;94358.00;;;21.30
10598;BMP180;5346;48.766;8.674;2023-07-13T08:06:06;94365.00;;;21.80
10598;BMP180;5346;48.766;8.674;2023-07-13T08:09:01;94377.00;;;22.20
10598;BMP180;5346;48.766;8.674;2023-07-13T08:11:31;94393.00;;;20.80
10598;BMP180;5346;48.766;8.674;2023-07-13T08:14:10;94388.00;;;20.00
10598;BMP180;5346;48.766;8.674;2023-07-13T08:16:38;94372.00;;;20.10
10598;BMP180;5346;48.766;8.674;2023-07-13T08:19:14;94378.00;;;20.00
10598;BMP180;5346;48.766;8.674;2023-07-13T08:21:42;94394.00;;;20.00
10598;BMP180;5346;48.766;8.674;2023-07-13T08:24:17;94402.00;;;19.80
10598;BMP180;5346;48.766;8.674;2023-07-13T08:26:46;94357.00;;;20.70
10598;BMP180;5346;48.766;8.674;2023-07-13T08:29:21;94361.00;;;21.90
10598;BMP180;5346;48.766;8.674;2023-07-13T08:31:50;94363.00;;;21.80
10598;BMP180;5346;48.766;8.674;2023-07-13T08:34:24;94356.00;;;22.20
10598;BMP180;5346;48.766;8.674;2023-07-13T08:36:52;94385.00;;;22.70
10598;BMP180;5346;48.766;8.674;2023-07-13T08:39:35;94388.00;;;21.90
10598;BMP180;5346;48.766;8.674;2023-07-13T08:42:14;94391.00;;;21.20
10598;BMP180;5346;48.766;8.674;2023-07-13T08:48:13;94370.00;;;21.20
10598;BMP180;5346;48.766;8.674;2023-07-13T08:50:58;94360.00;;;22.20
10598;BMP180;5346;48.766;8.674;2023-07-13T08:53:38;94353.00;;;22.80
10598;BMP180;5346;48.766;8.674;2023-07-13T08:56:16;94365.00;;;22.90
10598;BMP180;5346;48.766;8.674;2023-07-13T08:59:18;94354.00;;;22.90
10598;BMP180;5346;48.766;8.674;2023-07-13T09:02:26;94401.00;;;21.80
10598;BMP180;5346;48.766;8.674;2023-07-13T09:08:33;94375.00;;;21.50
10598;BMP180;5346;48.766;8.674;2023-07-13T09:14:47;94408.00;;;21.50
10598;BMP180;5346;48.766;8.674;2023-07-13T09:17:20;94404.00;;;21.10
10598;BMP180;5346;48.766;8.674;2023-07-13T09:22:47;94378.00;;;21.30
10598;BMP180;5346;48.766;8.674;2023-07-13T09:25:35;94370.00;;;20.80
10598;BMP180;5346;48.766;8.674;2023-07-13T09:28:25;94369.00;;;21.80
10598;BMP180;5346;48.766;8.674;2023-07-13T09:31:33;94375.00;;;22.00
10598;BMP180;5346;48.766;8.674;2023-07-13T09:34:13;94372.00;;;22.80
10598;BMP180;5346;48.766;8.674;2023-07-13T09:36:47;94364.00;;;23.00
10598;BMP180;5346;48.766;8.674;2023-07-13T09:39:37;94373.00;;;23.30
10598;BMP180;5346;48.766;8.674;2023-07-13T09:42:21;94383.00;;;22.00
10598;BMP180;5346;48.766;8.674;2023-07-13T09:45:01;94373.00;;;21.80
10598;BMP180;5346;48.766;8.674;2023-07-13T09:47:41;94361.00;;;22.20
10598;BMP180;5346;48.766;8.674;2023-07-13T09:50:15;94360.00;;;23.00
10598;BMP180;5346;48.766;8.674;2023-07-13T09:52:52;94362.00;;;22.70
10598;BMP180;5346;48.766;8.674;2023-07-13T09:55:32;94375.00;;;22.80
10598;BMP180;5346;48.766;8.674;2023-07-13T09:58:19;94371.00;;;23.90
10598;BMP180;5346;48.766;8.674;2023-07-13T10:00:57;94371.00;;;23.90
10598;BMP180;5346;48.766;8.674;2023-07-13T10:03:36;94368.00;;;23.40
10598;BMP180;5346;48.766;8.674;2023-07-13T10:06:15;94369.00;;;24.80
10598;BMP180;5346;48.766;8.674;2023-07-13T10:08:51;94369.00;;;24.20
10598;BMP180;5346;48.766;8.674;2023-07-13T10:11:30;94358.00;;;24.40
10598;BMP180;5346;48.766;8.674;2023-07-13T10:14:14;94393.00;;;23.70
10598;BMP180;5346;48.766;8.674;2023-07-13T10:16:49;94385.00;;;22.30
10598;BMP180;5346;48.766;8.674;2023-07-13T10:19:32;94372.00;;;23.60
10598;BMP180;5346;48.766;8.674;2023-07-13T10:22:28;94364.00;;;22.90
10598;BMP180;5346;48.766;8.674;2023-07-13T10:25:15;94362.00;;;23.70
10598;BMP180;5346;48.766;8.674;2023-07-13T10:27:53;94398.00;;;23.90
10598;BMP180;5346;48.766;8.674;2023-07-13T10:30:32;94363.00;;;23.70
10598;BMP180;5346;48.766;8.674;2023-07-13T10:33:03;94364.00;;;24.30
10598;BMP180;5346;48.766;8.674;2023-07-13T10:35:44;94367.00;;;24.70
10598;BMP180;5346;48.766;8.674;2023-07-13T10:38:19;94373.00;;;24.00
10598;BMP180;5346;48.766;8.674;2023-07-13T10:41:02;94374.00;;;25.30
10598;BMP180;5346;48.766;8.674;2023-07-13T10:43:43;94406.00;;;24.70
10598;BMP180;5346;48.766;8.674;2023-07-13T10:46:22;94383.00;;;24.60
10598;BMP180;5346;48.766;8.674;2023-07-13T10:49:02;94365.00;;;24.60
10598;BMP180;5346;48.766;8.674;2023-07-13T10:51:38;94382.00;;;24.80
10598;BMP180;5346;48.766;8.674;2023-07-13T10:54:19;94381.00;;;24.90
10598;BMP180;5346;48.766;8.674;2023-07-13T11:02:42;94372.00;;;24.90
10598;BMP180;5346;48.766;8.674;2023-07-13T11:05:30;94383.00;;;25.10
10598;BMP180;5346;48.766;8.674;2023-07-13T11:08:19;94364.00;;;25.80
10598;BMP180;5346;48.766;8.674;2023-07-13T11:10:52;94375.00;;;25.90
10598;BMP180;5346;48.766;8.674;2023-07-13T11:14:00;94370.00;;;23.40
10598;BMP180;5346;48.766;8.674;2023-07-13T11:22:10;94360.00;;;25.20
10598;BMP180;5346;48.766;8.674;2023-07-13T11:25:02;94355.00;;;26.60
10598;BMP180;5346;48.766;8.674;2023-07-13T11:27:41;94382.00;;;26.40
10598;BMP180;5346;48.766;8.674;2023-07-13T11:33:20;94358.00;;;25.00
10598;BMP180;5346;48.766;8.674;2023-07-13T11:36:16;94358.00;;;25.30
10598;BMP180;5346;48.766;8.674;2023-07-13T11:39:15;94416.00;;;24.10
10598;BMP180;5346;48.766;8.674;2023-07-13T11:42:02;94373.00;;;23.50
10598;BMP180;5346;48.766;8.674;2023-07-13T11:44:43;94406.00;;;23.40
10598;BMP180;5346;48.766;8.674;2023-07-13T11:47:42;94391.00;;;22.90
10598;BMP180;5346;48.766;8.674;2023-07-13T11:50:21;94362.00;;;24.50
10598;BMP180;5346;48.766;8.674;2023-07-13T11:52:50;94361.00;;;25.40
10598;BMP180;5346;48.766;8.674;2023-07-13T11:55:29;94360.00;;;26.20
10598;BMP180;5346;48.766;8.674;2023-07-13T11:57:59;94370.00;;;25.80
10598;BMP180;5346;48.766;8.674;2023-07-13T12:00:34;94369.00;;;26.30
10598;BMP180;5346;48.766;8.674;2023-07-13T12:03:03;94372.00;;;26.70
10598;BMP180;5346;48.766;8.674;2023-07-13T12:05:33;94369.00;;;26.80
10598;BMP180;5346;48.766;8.674;2023-07-13T12:08:20;94357.00;;;26.40
10598;BMP180;5346;48.766;8.674;2023-07-13T12:10:58;94362.00;;;26.50
10598;BMP180;5346;48.766;8.674;2023-07-13T12:13:39;94367.00;;;26.80
10598;BMP180;5346;48.766;8.674;2023-07-13T12:16:17;94369.00;;;26.40
10598;BMP180;5346;48.766;8.674;2023-07-13T12:18:58;94361.00;;;26.60
10598;BMP180;5346;48.766;8.674;2023-07-13T12:21:37;94370.00;;;27.10
10598;BMP180;5346;48.766;8.674;2023-07-13T12:24:20;94365.00;;;25.00
10598;BMP180;5346;48.766;8.674;2023-07-13T12:27:00;94369.00;;;26.10
10598;BMP180;5346;48.766;8.674;2023-07-13T12:29:50;94369.00;;;26.30
10598;BMP180;5346;48.766;8.674;2023-07-13T12:32:27;94360.00;;;26.40
10598;BMP180;5346;48.766;8.674;2023-07-13T12:35:16;94410.00;;;25.50
10598;BMP180;5346;48.766;8.674;2023-07-13T12:37:52;94409.00;;;25.10
10598;BMP180;5346;48.766;8.674;2023-07-13T12:40:34;94409.00;;;24.90
10598;BMP180;5346;48.766;8.674;2023-07-13T12:43:04;94380.00;;;25.20
10598;BMP180;5346;48.766;8.674;2023-07-13T12:48:30;94375.00;;;26.70
10598;BMP180;5346;48.766;8.674;2023-07-13T12:51:27;94376.00;;;26.50
10598;BMP180;5346;48.766;8.674;2023-07-13T12:54:12;94374.00;;;25.70
10598;BMP180;5346;48.766;8.674;2023-07-13T12:56:50;94379.00;;;25.90
10598;BMP180;5346;48.766;8.674;2023-07-13T12:59:31;94375.00;;;25.90
10598;BMP180;5346;48.766;8.674;2023-07-13T13:02:25;94415.00;;;27.10
10598;BMP180;5346;48.766;8.674;2023-07-13T13:05:02;94379.00;;;26.40
10598;BMP180;5346;48.766;8.674;2023-07-13T13:07:31;94372.00;;;26.20
10598;BMP180;5346;48.766;8.674;2023-07-13T13:10:14;94379.00;;;26.00
10598;BMP180;5346;48.766;8.674;2023-07-13T13:12:49;94379.00;;;26.80
10598;BMP180;5346;48.766;8.674;2023-07-13T13:15:17;94377.00;;;25.30
10598;BMP180;5346;48.766;8.674;2023-07-13T13:17:51;94376.00;;;25.90
10598;BMP180;5346;48.766;8.674;2023-07-13T13:20:25;94377.00;;;26.20
10598;BMP180;5346;48.766;8.674;2023-07-13T13:22:59;94364.00;;;26.80
10598;BMP180;5346;48.766;8.674;2023-07-13T13:25:33;94377.00;;;26.30
10598;BMP180;5346;48.766;8.674;2023-07-13T13:28:16;94436.00;;;25.10
10598;BMP180;5346;48.766;8.674;2023-07-13T13:30:51;94379.00;;;24.60
10598;BMP180;5346;48.766;8.674;2023-07-13T13:33:28;94423.00;;;25.10
10598;BMP180;5346;48.766;8.674;2023-07-13T13:35:56;94418.00;;;24.50
10598;BMP180;5346;48.766;8.674;2023-07-13T13:38:30;94382.00;;;24.40
10598;BMP180;5346;48.766;8.674;2023-07-13T13:41:13;94388.00;;;24.60
10598;BMP180;5346;48.766;8.674;2023-07-13T13:43:47;94374.00;;;25.50
10598;BMP180;5346;48.766;8.674;2023-07-13T13:46:24;94374.00;;;25.90
10598;BMP180;5346;48.766;8.674;2023-07-13T13:48:58;94371.00;;;25.20
10598;BMP180;5346;48.766;8.674;2023-07-13T13:51:26;94379.00;;;25.90
10598;BMP180;5346;48.766;8.674;2023-07-13T13:54:00;94383.00;;;26.90
10598;BMP180;5346;48.766;8.674;2023-07-13T13:56:35;94380.00;;;27.50
10598;BMP180;5346;48.766;8.674;2023-07-13T13:59:10;94374.00;;;27.00
10598;BMP180;5346;48.766;8.674;2023-07-13T14:01:38;94386.00;;;25.40
10598;BMP180;5346;48.766;8.674;2023-07-13T14:04:19;94387.00;;;24.90
10598;BMP180;5346;48.766;8.674;2023-07-13T14:06:47;94395.00;;;25.10
10598;BMP180;5346;48.766;8.674;2023-07-13T14:09:21;94389.00;;;25.80
10598;BMP180;5346;48.766;8.674;2023-07-13T14:11:50;94389.00;;;25.60
10598;BMP180;5346;48.766;8.674;2023-07-13T14:14:25;94383.00;;;25.80
10598;BMP180;5346;48.766;8.674;2023-07-13T14:17:02;94424.00;;;26.00
10598;BMP180;5346;48.766;8.674;2023-07-13T14:19:36;94433.00;;;23.90
10598;BMP180;5346;48.766;8.674;2023-07-13T14:22:04;94423.00;;;23.20
10598;BMP180;5346;48.766;8.674;2023-07-13T14:24:38;94386.00;;;24.10
10598;BMP180;5346;48.766;8.674;2023-07-13T14:27:10;94381.00;;;25.10
10598;BMP180;5346;48.766;8.674;2023-07-13T14:29:45;94420.00;;;25.70
10598;BMP180;5346;48.766;8.674;2023-07-13T14:32:13;94373.00;;;26.50
10598;BMP180;5346;48.766;8.674;2023-07-13T14:38:32;94381.00;;;25.20
10598;BMP180;5346;48.766;8.674;2023-07-13T14:48:48;94392.00;;;24.60
10598;BMP180;5346;48.766;8.674;2023-07-13T14:51:24;94387.00;;;24.60
10598;BMP180;5346;48.766;8.674;2023-07-13T14:53:51;94396.00;;;24.90
10598;BMP180;5346;48.766;8.674;2023-07-13T14:56:26;94435.00;;;26.00
10598;BMP180;5346;48.766;8.674;2023-07-13T14:58:53;94401.00;;;25.50
10598;BMP180;5346;48.766;8.674;2023-07-13T15:01:30;94405.00;;;25.50
10598;BMP180;5346;48.766;8.674;2023-07-13T15:03:59;94395.00;;;25.70
10598;BMP180;5346;48.766;8.674;2023-07-13T15:06:57;94400.00;;;26.80
10598;BMP180;5346;48.766;8.674;2023-07-13T15:09:25;94395.00;;;26.70
10598;BMP180;5346;48.766;8.674;2023-07-13T15:12:06;94391.00;;;25.70
10598;BMP180;5346;48.766;8.674;2023-07-13T15:14:34;94400.00;;;26.30
10598;BMP180;5346;48.766;8.674;2023-07-13T15:17:35;94408.00;;;27.10
10598;BMP180;5346;48.766;8.674;2023-07-13T15:22:50;94392.00;;;26.90
10598;BMP180;5346;48.766;8.674;2023-07-13T15:25:26;94404.00;;;27.00
10598;BMP180;5346;48.766;8.674;2023-07-13T15:28:02;94389.00;;;25.70
10598;BMP180;5346;48.766;8.674;2023-07-13T15:30:43;94389.00;;;26.10
10598;BMP180;5346;48.766;8.674;2023-07-13T15:33:29;94396.00;;;25.70
10598;BMP180;5346;48.766;8.674;2023-07-13T15:36:04;94402.00;;;25.60
10598;BMP180;5346;48.766;8.674;2023-07-13T15:38:46;94402.00;;;25.40
10598;BMP180;5346;48.766;8.674;2023-07-13T15:41:28;94401.00;;;25.90
10598;BMP180;5346;48.766;8.674;2023-07-13T15:44:20;94396.00;;;27.00
10598;BMP180;5346;48.766;8.674;2023-07-13T15:46:55;94396.00;;;27.10
10598;BMP180;5346;48.766;8.674;2023-07-13T15:49:30;94403.00;;;26.00
10598;BMP180;5346;48.766;8.674;2023-07-13T15:51:57;94393.00;;;26.20
10598;BMP180;5346;48.766;8.674;2023-07-13T15:54:32;94396.00;;;27.30
10598;BMP180;5346;48.766;8.674;2023-07-13T15:57:01;94392.00;;;26.50
10598;BMP180;5346;48.766;8.674;2023-07-13T15:59:35;94387.00;;;27.60